createdAt,value
2023-10-18T00:03:10.177Z,100548.09
2023-10-18T00:07:18.570Z,100550.80
2023-10-18T00:11:28.173Z,100550.10
2023-10-18T00:15:35.951Z,100546.60
2023-10-18T00:19:45.408Z,100540.23
2023-10-18T00:23:53.861Z,100536.46
2023-10-18T00:28:02.157Z,100535.23
2023-10-18T00:32:12.441Z,100545.68
2023-10-18T00:36:20.067Z,100541.48
2023-10-18T00:40:38.945Z,100532.71
2023-10-18T00:44:56.552Z,100534.58
2023-10-18T00:49:04.270Z,100534.48
2023-10-18T00:53:13.061Z,100534.27
2023-10-18T00:57:32.459Z,100537.58
2023-10-18T01:01:59.602Z,100533.45
2023-10-18T01:06:13.634Z,100529.35
2023-10-18T01:10:25.295Z,100525.42
2023-10-18T01:14:33.696Z,100525.20
2023-10-18T01:18:44.792Z,100520.73
2023-10-18T01:22:52.969Z,100527.32
2023-10-18T01:27:01.220Z,100523.08
2023-10-18T01:31:10.511Z,100526.36
2023-10-18T01:35:19.046Z,100527.25
2023-10-18T01:39:31.199Z,100521.08
2023-10-18T01:43:39.846Z,100516.95
2023-10-18T01:47:54.038Z,100514.71
2023-10-18T01:52:05.922Z,100507.91
2023-10-18T01:56:15.518Z,100497.55
2023-10-18T02:00:26.780Z,100494.98
2023-10-18T02:04:52.204Z,100493.61
2023-10-18T02:09:02.159Z,100496.43
2023-10-18T02:13:12.575Z,100491.39
2023-10-18T02:17:20.927Z,100486.67
2023-10-18T02:21:29.122Z,100487.83
2023-10-18T02:25:44.655Z,100481.99
2023-10-18T02:29:53.522Z,100480.20
2023-10-18T02:34:04.523Z,100479.03
2023-10-18T02:38:16.475Z,100478.15
2023-10-18T02:42:26.078Z,100474.63
2023-10-18T02:46:34.658Z,100481.30
2023-10-18T02:50:43.406Z,100486.65
2023-10-18T02:54:51.503Z,100493.23
2023-10-18T02:59:08.573Z,100490.23
2023-10-18T03:03:16.403Z,100486.49
2023-10-18T03:07:24.630Z,100483.95
2023-10-18T03:11:35.239Z,100487.61
2023-10-18T03:16:01.498Z,100490.73
2023-10-18T03:20:21.376Z,100489.24
2023-10-18T03:24:30.337Z,100492.34
2023-10-18T03:28:42.425Z,100493.55
2023-10-18T03:32:51.990Z,100492.20
2023-10-18T03:37:00.882Z,100489.13
2023-10-18T03:41:12.446Z,100487.97
2023-10-18T03:45:22.949Z,100482.55
2023-10-18T03:49:35.048Z,100476.58
2023-10-18T03:53:43.153Z,100472.22
2023-10-18T03:57:55.928Z,100471.51
2023-10-18T04:02:08.721Z,100465.50
2023-10-18T04:06:24.716Z,100458.95
2023-10-18T04:10:37.189Z,100454.36
2023-10-18T04:14:53.926Z,100446.98
2023-10-18T04:19:03.786Z,100445.47
2023-10-18T04:23:15.986Z,100445.42
2023-10-18T04:27:23.632Z,100438.04
2023-10-18T04:31:31.742Z,100427.34
2023-10-18T04:35:46.162Z,100424.40
2023-10-18T04:39:54.948Z,100424.46
2023-10-18T04:44:07.041Z,100425.89
2023-10-18T04:48:18.117Z,100426.48
2023-10-18T04:52:41.486Z,100429.13
2023-10-18T04:56:57.847Z,100434.05
2023-10-18T05:01:09.131Z,100439.32
2023-10-18T05:05:19.127Z,100438.83
2023-10-18T05:09:36.213Z,100443.71
2023-10-18T05:13:50.134Z,100439.38
2023-10-18T05:18:06.777Z,100435.30
2023-10-18T05:22:21.400Z,100439.19
2023-10-18T05:26:34.610Z,100437.29
2023-10-18T05:31:00.875Z,100434.07
2023-10-18T05:35:23.316Z,100428.17
2023-10-18T05:39:37.882Z,100429.67
2023-10-18T05:43:47.589Z,100436.65
2023-10-18T05:47:56.539Z,100431.41
2023-10-18T05:56:54.500Z,100432.99
2023-10-18T06:01:05.937Z,100431.40
2023-10-18T06:05:14.735Z,100433.41
2023-10-18T06:09:29.252Z,100440.11
2023-10-18T06:13:39.062Z,100438.47
2023-10-18T06:17:54.691Z,100436.30
2023-10-18T06:22:14.793Z,100433.11
2023-10-18T06:26:31.964Z,100429.75
2023-10-18T06:30:42.888Z,100432.08
2023-10-18T06:34:57.240Z,100424.90
2023-10-18T06:39:06.008Z,100421.91
2023-10-18T06:43:15.764Z,100428.45
2023-10-18T06:47:31.818Z,100431.64
2023-10-18T06:51:42.772Z,100427.34
2023-10-18T06:56:02.036Z,100428.13
2023-10-18T07:00:15.981Z,100426.88
2023-10-18T07:04:29.291Z,100423.67
2023-10-18T07:08:41.616Z,100424.12
2023-10-18T07:12:53.793Z,100424.11
2023-10-18T07:17:05.806Z,100424.05
2023-10-18T07:21:20.403Z,100418.38
2023-10-18T07:25:33.737Z,100412.40
2023-10-18T07:29:48.040Z,100412.15
2023-10-18T07:33:56.185Z,100415.27
2023-10-18T07:38:03.797Z,100411.64
2023-10-18T07:42:15.178Z,100405.23
2023-10-18T07:46:25.994Z,100404.05
2023-10-18T07:50:43.222Z,100406.02
2023-10-18T07:54:51.908Z,100407.35
2023-10-18T07:59:29.368Z,100404.34
2023-10-18T08:03:39.918Z,100399.79
2023-10-18T08:07:50.634Z,100394.98
2023-10-18T08:11:58.302Z,100388.46
2023-10-18T08:16:11.533Z,100383.91
2023-10-18T08:20:40.590Z,100384.16
2023-10-18T08:24:51.985Z,100379.59
2023-10-18T08:29:01.108Z,100383.56
2023-10-18T08:33:09.206Z,100386.21
2023-10-18T08:37:17.502Z,100385.65
2023-10-18T08:41:27.870Z,100384.13
2023-10-18T08:45:38.214Z,100377.26
2023-10-18T08:49:51.762Z,100373.86
2023-10-18T08:54:02.600Z,100368.55
2023-10-18T08:58:10.936Z,100367.04
2023-10-18T09:02:24.076Z,100363.31
2023-10-18T09:06:33.385Z,100361.98
2023-10-18T09:10:48.825Z,100356.45
2023-10-18T09:14:56.925Z,100358.32
2023-10-18T09:19:04.744Z,100348.83
2023-10-18T09:23:21.684Z,100349.95
2023-10-18T09:27:31.000Z,100347.18
2023-10-18T09:31:38.872Z,100334.00
2023-10-18T09:35:49.308Z,100323.30
2023-10-18T09:39:57.900Z,100320.43
2023-10-18T09:44:05.372Z,100321.61
2023-10-18T09:48:13.318Z,100319.23
2023-10-18T09:52:20.957Z,100314.35
2023-10-18T09:56:34.930Z,100305.54
2023-10-18T10:00:44.169Z,100298.37
2023-10-18T10:04:56.848Z,100286.23
2023-10-18T10:09:13.382Z,100278.63
2023-10-18T10:13:26.772Z,100272.13
2023-10-18T10:17:37.760Z,100266.02
2023-10-18T10:21:48.464Z,100259.08
2023-10-18T10:26:33.037Z,100254.05
2023-10-18T10:30:46.007Z,100247.91
2023-10-18T10:34:59.480Z,100241.19
2023-10-18T10:39:14.213Z,100235.30
2023-10-18T10:43:22.045Z,100230.19
2023-10-18T10:47:34.026Z,100215.27
2023-10-18T10:51:51.128Z,100211.99
2023-10-18T10:55:58.841Z,100201.37
2023-10-18T11:00:23.921Z,100192.71
2023-10-18T11:05:05.353Z,100180.73
2023-10-18T11:09:16.997Z,100168.58
2023-10-18T11:13:26.538Z,100165.49
2023-10-18T11:17:37.066Z,100158.40
2023-10-18T11:21:46.079Z,100155.33
2023-10-18T11:25:58.401Z,100154.42
2023-10-18T11:30:17.101Z,100154.86
2023-10-18T11:34:27.869Z,100146.25
2023-10-18T11:38:35.772Z,100149.55
2023-10-18T11:42:57.046Z,100148.16
2023-10-18T11:47:20.305Z,100152.48
2023-10-18T11:51:28.380Z,100151.64
2023-10-18T11:55:38.549Z,100142.59
2023-10-18T11:59:57.418Z,100137.33
2023-10-18T12:04:09.579Z,100135.09
2023-10-18T12:08:19.375Z,100128.69
2023-10-18T12:12:26.870Z,100123.36
2023-10-18T12:16:35.453Z,100117.70
2023-10-18T12:20:45.880Z,100109.85
2023-10-18T12:24:53.796Z,100104.59
2023-10-18T12:29:04.858Z,100096.08
2023-10-18T12:33:20.724Z,100086.95
2023-10-18T12:37:34.692Z,100084.09
2023-10-18T12:41:43.003Z,100075.91
2023-10-18T12:45:53.293Z,100067.17
2023-10-18T12:50:01.345Z,100063.89
2023-10-18T12:54:10.731Z,100056.45
2023-10-18T12:58:21.605Z,100057.45
2023-10-18T13:02:43.744Z,100050.70
2023-10-18T13:06:52.343Z,100044.09
2023-10-18T13:11:22.259Z,100035.56
2023-10-18T13:15:30.048Z,100029.36
2023-10-18T13:19:43.156Z,100018.30
2023-10-18T13:23:52.503Z,100004.20
2023-10-18T13:28:06.883Z,100008.38
2023-10-18T13:32:15.525Z,100010.45
2023-10-18T13:36:24.292Z,100008.01
2023-10-18T13:40:33.158Z,100008.98
2023-10-18T13:44:42.661Z,100006.59
2023-10-18T13:48:52.509Z,100000.55
2023-10-18T13:53:00.756Z,99995.05
2023-10-18T13:57:08.896Z,99987.52
2023-10-18T14:01:23.861Z,99985.63
2023-10-18T14:05:33.418Z,99978.14
2023-10-18T14:09:44.944Z,99971.63
2023-10-18T14:13:56.592Z,99965.79
2023-10-18T14:18:04.593Z,99965.66
2023-10-18T14:22:13.987Z,99965.67
2023-10-18T14:26:26.096Z,99963.90
2023-10-18T14:30:37.444Z,99959.23
2023-10-18T14:34:45.160Z,99957.95
2023-10-18T14:38:52.856Z,99949.66
2023-10-18T14:43:00.905Z,99945.94
2023-10-18T14:47:09.507Z,99946.08
2023-10-18T14:51:17.224Z,99944.15
2023-10-18T14:55:25.608Z,99933.48
2023-10-18T14:59:34.986Z,99932.20
2023-10-18T15:03:43.217Z,99928.48
2023-10-18T15:07:51.011Z,99931.27
2023-10-18T15:11:59.366Z,99924.19
2023-10-18T15:16:11.513Z,99918.70
2023-10-18T15:20:19.671Z,99914.96
2023-10-18T15:24:28.141Z,99913.23
2023-10-18T15:28:36.703Z,99909.02
2023-10-18T15:32:46.591Z,99907.84
2023-10-18T15:36:55.666Z,99897.11
2023-10-18T15:41:11.438Z,99894.98
2023-10-18T15:45:21.359Z,99894.77
2023-10-18T15:49:30.503Z,99893.73
2023-10-18T15:53:53.153Z,99894.39
2023-10-18T15:58:06.062Z,99890.11
2023-10-18T16:02:14.225Z,99891.58
2023-10-18T16:06:23.118Z,99889.51
2023-10-18T16:10:33.741Z,99889.60
2023-10-18T16:14:43.184Z,99889.36
2023-10-18T16:18:53.574Z,99883.95
2023-10-18T16:23:04.652Z,99880.70
2023-10-18T16:27:12.468Z,99879.14
2023-10-18T16:31:23.116Z,99877.87
2023-10-18T16:35:32.609Z,99874.70
2023-10-18T16:39:41.088Z,99876.32
2023-10-18T16:43:51.723Z,99874.77
2023-10-18T16:48:02.175Z,99875.06
2023-10-18T16:52:10.540Z,99870.47
2023-10-18T16:56:18.688Z,99871.11
2023-10-18T17:00:26.415Z,99870.13
2023-10-18T17:04:34.153Z,99869.75
2023-10-18T17:08:42.133Z,99865.10
2023-10-18T17:12:51.393Z,99865.27
2023-10-18T17:17:00.294Z,99856.55
2023-10-18T17:25:21.832Z,99844.02
2023-10-18T17:29:31.018Z,99842.63
2023-10-18T17:33:39.013Z,99840.80
2023-10-18T17:37:49.237Z,99845.85
2023-10-18T17:41:57.761Z,99844.14
2023-10-18T17:46:06.295Z,99836.45
2023-10-18T17:50:18.953Z,99834.27
2023-10-18T17:54:27.026Z,99826.58
2023-10-18T17:58:39.096Z,99825.29
2023-10-18T18:02:46.576Z,99820.15
2023-10-18T18:06:55.953Z,99814.79
2023-10-18T18:11:03.602Z,99810.14
2023-10-18T18:15:14.440Z,99800.64
2023-10-18T18:19:23.506Z,99798.00
2023-10-18T18:23:31.527Z,99795.14
2023-10-18T18:27:39.474Z,99789.20
2023-10-18T18:31:48.675Z,99792.71
2023-10-18T18:35:56.981Z,99792.40
2023-10-18T18:40:08.896Z,99788.75
2023-10-18T18:44:16.895Z,99790.63
2023-10-18T18:48:25.322Z,99789.02
2023-10-18T18:52:33.439Z,99789.47
2023-10-18T18:56:41.910Z,99796.55
2023-10-18T19:00:51.369Z,99796.02
2023-10-18T19:04:59.049Z,99791.02
2023-10-18T19:09:08.992Z,99784.90
2023-10-18T19:13:17.261Z,99776.77
2023-10-18T19:17:25.019Z,99772.48
2023-10-18T19:21:32.896Z,99771.30
2023-10-18T19:25:43.082Z,99768.16
2023-10-18T19:29:51.055Z,99756.35
2023-10-18T19:33:58.533Z,99748.02
2023-10-18T19:38:06.548Z,99742.52
2023-10-18T19:42:15.074Z,99739.70
2023-10-18T19:46:23.527Z,99739.98
2023-10-18T19:50:31.976Z,99739.39
2023-10-18T19:54:39.638Z,99732.80
2023-10-18T19:58:47.825Z,99732.76
2023-10-18T20:02:55.640Z,99731.02
2023-10-18T20:07:03.656Z,99725.95
2023-10-18T20:11:12.489Z,99727.66
2023-10-18T20:15:21.455Z,99726.77
2023-10-18T20:19:29.762Z,99722.15
2023-10-18T20:23:38.133Z,99715.04
2023-10-18T20:27:46.008Z,99711.59
2023-10-18T20:31:54.157Z,99713.94
2023-10-18T20:36:02.246Z,99709.45
2023-10-18T20:40:12.633Z,99701.84
2023-10-18T20:44:22.117Z,99697.73
2023-10-18T20:48:30.572Z,99695.42
2023-10-18T20:52:42.558Z,99686.45
2023-10-18T20:57:10.928Z,99682.96
2023-10-18T21:01:23.854Z,99683.84
2023-10-18T21:05:37.026Z,99672.92
2023-10-18T21:09:46.210Z,99665.40
2023-10-18T21:13:54.570Z,99666.75
2023-10-18T21:18:02.680Z,99661.42
2023-10-18T21:22:12.988Z,99656.54
2023-10-18T21:26:21.161Z,99649.73
2023-10-18T21:30:28.774Z,99649.06
2023-10-18T21:34:37.136Z,99648.80
2023-10-18T21:38:45.932Z,99641.73
2023-10-18T21:42:53.901Z,99637.29
2023-10-18T21:47:02.079Z,99629.81
2023-10-18T21:51:13.550Z,99627.36
2023-10-18T21:55:21.877Z,99621.86
2023-10-18T21:59:32.195Z,99612.77
2023-10-18T22:03:45.160Z,99610.46
2023-10-18T22:07:54.216Z,99606.59
2023-10-18T22:12:04.831Z,99603.95
2023-10-18T22:16:24.972Z,99600.14
2023-10-18T22:20:39.345Z,99597.82
2023-10-18T22:24:49.533Z,99593.66
2023-10-18T22:28:58.923Z,99592.44
2023-10-18T22:33:09.407Z,99585.55
2023-10-18T22:37:17.581Z,99583.48
2023-10-18T22:41:33.636Z,99580.32
2023-10-18T22:45:53.136Z,99568.55
2023-10-18T22:50:08.126Z,99562.48
2023-10-18T22:54:16.319Z,99555.66
2023-10-18T22:58:27.452Z,99545.27
2023-10-18T23:02:40.457Z,99539.23
2023-10-18T23:06:50.542Z,99532.74
2023-10-18T23:11:03.171Z,99527.48
2023-10-18T23:15:21.370Z,99519.52
2023-10-18T23:19:41.076Z,99525.67
2023-10-18T23:24:07.256Z,99521.41
2023-10-18T23:28:20.422Z,99522.09
2023-10-18T23:32:53.456Z,99527.25
2023-10-18T23:37:13.919Z,99513.41
2023-10-18T23:41:31.040Z,99509.48
2023-10-18T23:45:42.238Z,99494.97
2023-10-18T23:50:00.632Z,99488.55
2023-10-18T23:54:09.242Z,99481.77
2023-10-18T23:58:17.080Z,99477.85
